sensor_id;sensor_type;location;lat;lon;timestamp;P1;durP1;ratioP1;P2;durP2;ratioP2
8632;SDS011;4354;49.832;10.746;2023-03-23T00:01:21;3.73;;;1.80;;
8632;SDS011;4354;49.832;10.746;2023-03-23T00:03:49;3.27;;;2.00;;
8632;SDS011;4354;49.832;10.746;2023-03-23T00:06:17;2.03;;;1.50;;
8632;SDS011;4354;49.832;10.746;2023-03-23T00:08:44;2.13;;;1.57;;
8632;SDS011;4354;49.832;10.746;2023-03-23T00:11:18;3.57;;;1.70;;
8632;SDS011;4354;49.832;10.746;2023-03-23T00:13:46;1.87;;;1.53;;
8632;SDS011;4354;49.832;10.746;2023-03-23T00:16:18;2.47;;;1.70;;
8632;SDS011;4354;49.832;10.746;2023-03-23T00:18:46;1.50;;;1.40;;
8632;SDS011;4354;49.832;10.746;2023-03-23T00:21:13;1.93;;;1.20;;
8632;SDS011;4354;49.832;10.746;2023-03-23T00:23:39;1.90;;;1.20;;
8632;SDS011;4354;49.832;10.746;2023-03-23T00:26:05;2.47;;;1.57;;
8632;SDS011;4354;49.832;10.746;2023-03-23T00:28:31;1.60;;;1.50;;
8632;SDS011;4354;49.832;10.746;2023-03-23T00:30:58;2.13;;;1.90;;
8632;SDS011;4354;49.832;10.746;2023-03-23T00:33:32;2.77;;;2.10;;
8632;SDS011;4354;49.832;10.746;2023-03-23T00:36:03;3.73;;;2.07;;
8632;SDS011;4354;49.832;10.746;2023-03-23T00:38:30;3.10;;;1.77;;
8632;SDS011;4354;49.832;10.746;2023-03-23T00:40:56;4.33;;;2.07;;
8632;SDS011;4354;49.832;10.746;2023-03-23T00:43:22;2.87;;;1.70;;
8632;SDS011;4354;49.832;10.746;2023-03-23T00:45:50;2.27;;;1.50;;
8632;SDS011;4354;49.832;10.746;2023-03-23T00:48:19;2.47;;;1.70;;
8632;SDS011;4354;49.832;10.746;2023-03-23T00:50:45;2.00;;;1.77;;
8632;SDS011;4354;49.832;10.746;2023-03-23T00:53:11;2.57;;;1.50;;
8632;SDS011;4354;49.832;10.746;2023-03-23T00:55:37;2.03;;;1.60;;
8632;SDS011;4354;49.832;10.746;2023-03-23T00:58:03;3.23;;;1.67;;
8632;SDS011;4354;49.832;10.746;2023-03-23T01:00:28;1.93;;;1.60;;
8632;SDS011;4354;49.832;10.746;2023-03-23T01:02:54;2.97;;;1.83;;
8632;SDS011;4354;49.832;10.746;2023-03-23T01:05:20;2.37;;;1.30;;
8632;SDS011;4354;49.832;10.746;2023-03-23T01:07:46;3.93;;;2.60;;
8632;SDS011;4354;49.832;10.746;2023-03-23T01:10:12;2.10;;;1.77;;
8632;SDS011;4354;49.832;10.746;2023-03-23T01:12:41;2.87;;;2.00;;
8632;SDS011;4354;49.832;10.746;2023-03-23T01:15:14;2.83;;;1.70;;
8632;SDS011;4354;49.832;10.746;2023-03-23T01:17:42;3.53;;;1.53;;
8632;SDS011;4354;49.832;10.746;2023-03-23T01:20:09;2.47;;;1.60;;
8632;SDS011;4354;49.832;10.746;2023-03-23T01:22:36;2.70;;;1.77;;
8632;SDS011;4354;49.832;10.746;2023-03-23T01:25:03;2.33;;;1.50;;
8632;SDS011;4354;49.832;10.746;2023-03-23T01:27:29;2.80;;;1.90;;
8632;SDS011;4354;49.832;10.746;2023-03-23T01:29:55;2.67;;;1.57;;
8632;SDS011;4354;49.832;10.746;2023-03-23T01:32:20;2.40;;;1.60;;
8632;SDS011;4354;49.832;10.746;2023-03-23T01:34:46;3.17;;;1.73;;
8632;SDS011;4354;49.832;10.746;2023-03-23T01:37:12;3.13;;;1.70;;
8632;SDS011;4354;49.832;10.746;2023-03-23T01:39:37;3.83;;;2.07;;
8632;SDS011;4354;49.832;10.746;2023-03-23T01:42:03;1.83;;;1.70;;
8632;SDS011;4354;49.832;10.746;2023-03-23T01:46:55;2.70;;;1.63;;
8632;SDS011;4354;49.832;10.746;2023-03-23T01:49:23;3.20;;;1.93;;
8632;SDS011;4354;49.832;10.746;2023-03-23T01:51:56;4.17;;;1.97;;
8632;SDS011;4354;49.832;10.746;2023-03-23T01:54:25;2.60;;;1.63;;
8632;SDS011;4354;49.832;10.746;2023-03-23T01:56:56;1.73;;;1.63;;
8632;SDS011;4354;49.832;10.746;2023-03-23T01:59:27;2.77;;;1.63;;
8632;SDS011;4354;49.832;10.746;2023-03-23T02:01:54;3.27;;;1.80;;
8632;SDS011;4354;49.832;10.746;2023-03-23T02:04:20;2.90;;;1.80;;
8632;SDS011;4354;49.832;10.746;2023-03-23T02:06:50;2.10;;;1.90;;
8632;SDS011;4354;49.832;10.746;2023-03-23T02:09:18;2.27;;;1.60;;
8632;SDS011;4354;49.832;10.746;2023-03-23T02:11:44;2.40;;;1.57;;
8632;SDS011;4354;49.832;10.746;2023-03-23T02:14:14;2.83;;;1.80;;
8632;SDS011;4354;49.832;10.746;2023-03-23T02:36:13;1.83;;;1.50;;
8632;SDS011;4354;49.832;10.746;2023-03-23T02:44:39;1.93;;;1.70;;
8632;SDS011;4354;49.832;10.746;2023-03-23T02:47:08;2.43;;;1.80;;
8632;SDS011;4354;49.832;10.746;2023-03-23T02:49:39;2.40;;;1.80;;
8632;SDS011;4354;49.832;10.746;2023-03-23T02:52:10;2.50;;;1.70;;
8632;SDS011;4354;49.832;10.746;2023-03-23T02:54:41;4.33;;;2.37;;
8632;SDS011;4354;49.832;10.746;2023-03-23T02:57:09;4.17;;;1.50;;
8632;SDS011;4354;49.832;10.746;2023-03-23T02:59:36;1.93;;;1.50;;
8632;SDS011;4354;49.832;10.746;2023-03-23T03:04:44;2.43;;;1.70;;
8632;SDS011;4354;49.832;10.746;2023-03-23T03:07:28;2.40;;;1.60;;
8632;SDS011;4354;49.832;10.746;2023-03-23T03:10:06;3.33;;;1.67;;
8632;SDS011;4354;49.832;10.746;2023-03-23T03:12:44;2.43;;;1.80;;
8632;SDS011;4354;49.832;10.746;2023-03-23T03:18:18;2.20;;;1.60;;
8632;SDS011;4354;49.832;10.746;2023-03-23T03:20:51;1.97;;;1.43;;
8632;SDS011;4354;49.832;10.746;2023-03-23T03:23:21;1.50;;;1.40;;
8632;SDS011;4354;49.832;10.746;2023-03-23T03:25:48;2.00;;;1.80;;
8632;SDS011;4354;49.832;10.746;2023-03-23T03:28:18;2.67;;;1.70;;
8632;SDS011;4354;49.832;10.746;2023-03-23T03:30:47;2.23;;;1.63;;
8632;SDS011;4354;49.832;10.746;2023-03-23T03:33:23;2.83;;;1.90;;
8632;SDS011;4354;49.832;10.746;2023-03-23T03:35:55;2.27;;;1.50;;
8632;SDS011;4354;49.832;10.746;2023-03-23T03:38:24;2.20;;;1.70;;
8632;SDS011;4354;49.832;10.746;2023-03-23T03:40:50;3.03;;;1.50;;
8632;SDS011;4354;49.832;10.746;2023-03-23T03:43:16;4.90;;;1.63;;
8632;SDS011;4354;49.832;10.746;2023-03-23T03:45:42;3.43;;;1.67;;
8632;SDS011;4354;49.832;10.746;2023-03-23T03:48:08;2.07;;;1.50;;
8632;SDS011;4354;49.832;10.746;2023-03-23T03:50:34;2.97;;;1.47;;
8632;SDS011;4354;49.832;10.746;2023-03-23T03:52:59;5.40;;;1.73;;
8632;SDS011;4354;49.832;10.746;2023-03-23T03:55:25;2.50;;;1.60;;
8632;SDS011;4354;49.832;10.746;2023-03-23T03:57:53;2.03;;;1.63;;
8632;SDS011;4354;49.832;10.746;2023-03-23T04:00:20;2.13;;;1.33;;
8632;SDS011;4354;49.832;10.746;2023-03-23T04:02:47;2.27;;;1.60;;
8632;SDS011;4354;49.832;10.746;2023-03-23T04:05:15;1.60;;;1.50;;
8632;SDS011;4354;49.832;10.746;2023-03-23T04:07:42;1.70;;;1.43;;
8632;SDS011;4354;49.832;10.746;2023-03-23T04:10:08;1.80;;;1.53;;
8632;SDS011;4354;49.832;10.746;2023-03-23T04:12:38;1.70;;;1.50;;
8632;SDS011;4354;49.832;10.746;2023-03-23T04:15:04;1.53;;;1.30;;
8632;SDS011;4354;49.832;10.746;2023-03-23T04:17:30;1.60;;;1.50;;
8632;SDS011;4354;49.832;10.746;2023-03-23T04:19:56;4.27;;;2.03;;
8632;SDS011;4354;49.832;10.746;2023-03-23T04:22:23;2.13;;;1.67;;
8632;SDS011;4354;49.832;10.746;2023-03-23T04:24:58;1.70;;;1.33;;
8632;SDS011;4354;49.832;10.746;2023-03-23T04:27:25;1.90;;;1.60;;
8632;SDS011;4354;49.832;10.746;2023-03-23T04:29:54;2.87;;;2.33;;
8632;SDS011;4354;49.832;10.746;2023-03-23T04:32:21;4.00;;;2.50;;
8632;SDS011;4354;49.832;10.746;2023-03-23T04:34:47;3.77;;;2.07;;
8632;SDS011;4354;49.832;10.746;2023-03-23T04:37:13;3.63;;;1.80;;
8632;SDS011;4354;49.832;10.746;2023-03-23T04:39:39;1.93;;;1.60;;
8632;SDS011;4354;49.832;10.746;2023-03-23T04:42:06;3.93;;;1.60;;
8632;SDS011;4354;49.832;10.746;2023-03-23T04:44:32;2.40;;;1.50;;
8632;SDS011;4354;49.832;10.746;2023-03-23T04:47:00;2.47;;;1.77;;
8632;SDS011;4354;49.832;10.746;2023-03-23T04:49:27;2.20;;;1.70;;
8632;SDS011;4354;49.832;10.746;2023-03-23T04:51:54;2.60;;;2.00;;
8632;SDS011;4354;49.832;10.746;2023-03-23T04:54:21;2.03;;;1.83;;
8632;SDS011;4354;49.832;10.746;2023-03-23T04:56:49;2.37;;;1.50;;
8632;SDS011;4354;49.832;10.746;2023-03-23T04:59:15;2.27;;;1.67;;
8632;SDS011;4354;49.832;10.746;2023-03-23T05:01:40;3.27;;;1.87;;
8632;SDS011;4354;49.832;10.746;2023-03-23T05:04:10;4.80;;;1.63;;
8632;SDS011;4354;49.832;10.746;2023-03-23T05:06:41;2.77;;;1.80;;
8632;SDS011;4354;49.832;10.746;2023-03-23T05:09:10;2.83;;;2.03;;
8632;SDS011;4354;49.832;10.746;2023-03-23T05:11:37;2.97;;;2.37;;
8632;SDS011;4354;49.832;10.746;2023-03-23T05:14:03;2.87;;;1.93;;
8632;SDS011;4354;49.832;10.746;2023-03-23T05:16:29;2.37;;;1.73;;
8632;SDS011;4354;49.832;10.746;2023-03-23T05:18:56;3.47;;;2.10;;
8632;SDS011;4354;49.832;10.746;2023-03-23T05:21:24;4.97;;;2.67;;
8632;SDS011;4354;49.832;10.746;2023-03-23T05:23:51;2.90;;;2.53;;
8632;SDS011;4354;49.832;10.746;2023-03-23T05:26:20;5.00;;;3.20;;
8632;SDS011;4354;49.832;10.746;2023-03-23T05:28:46;7.60;;;4.63;;
8632;SDS011;4354;49.832;10.746;2023-03-23T05:31:13;9.93;;;5.67;;
8632;SDS011;4354;49.832;10.746;2023-03-23T05:33:39;4.60;;;3.03;;
8632;SDS011;4354;49.832;10.746;2023-03-23T05:36:05;3.20;;;2.60;;
8632;SDS011;4354;49.832;10.746;2023-03-23T05:38:32;2.83;;;1.90;;
8632;SDS011;4354;49.832;10.746;2023-03-23T05:40:59;3.17;;;1.70;;
8632;SDS011;4354;49.832;10.746;2023-03-23T05:43:27;3.10;;;2.40;;
8632;SDS011;4354;49.832;10.746;2023-03-23T05:45:53;3.67;;;1.97;;
8632;SDS011;4354;49.832;10.746;2023-03-23T05:48:18;15.60;;;7.90;;
8632;SDS011;4354;49.832;10.746;2023-03-23T05:50:45;9.30;;;5.50;;
8632;SDS011;4354;49.832;10.746;2023-03-23T05:53:10;10.73;;;7.77;;
8632;SDS011;4354;49.832;10.746;2023-03-23T05:55:37;7.47;;;5.53;;
8632;SDS011;4354;49.832;10.746;2023-03-23T05:58:02;4.67;;;3.67;;
8632;SDS011;4354;49.832;10.746;2023-03-23T06:00:28;7.27;;;5.43;;
8632;SDS011;4354;49.832;10.746;2023-03-23T06:02:55;5.17;;;3.53;;
8632;SDS011;4354;49.832;10.746;2023-03-23T06:05:22;3.40;;;2.67;;
8632;SDS011;4354;49.832;10.746;2023-03-23T06:07:48;3.00;;;2.00;;
8632;SDS011;4354;49.832;10.746;2023-03-23T06:10:14;2.27;;;2.07;;
8632;SDS011;4354;49.832;10.746;2023-03-23T06:12:41;2.73;;;1.80;;
8632;SDS011;4354;49.832;10.746;2023-03-23T06:15:08;1.70;;;1.60;;
8632;SDS011;4354;49.832;10.746;2023-03-23T06:17:35;1.70;;;1.50;;
8632;SDS011;4354;49.832;10.746;2023-03-23T06:20:05;2.93;;;1.70;;
8632;SDS011;4354;49.832;10.746;2023-03-23T06:22:35;2.87;;;1.70;;
8632;SDS011;4354;49.832;10.746;2023-03-23T06:25:03;2.70;;;1.57;;
8632;SDS011;4354;49.832;10.746;2023-03-23T06:27:30;2.20;;;1.53;;
8632;SDS011;4354;49.832;10.746;2023-03-23T06:29:56;2.93;;;1.90;;
8632;SDS011;4354;49.832;10.746;2023-03-23T06:32:21;1.50;;;1.40;;
8632;SDS011;4354;49.832;10.746;2023-03-23T06:34:48;2.27;;;1.97;;
8632;SDS011;4354;49.832;10.746;2023-03-23T06:37:14;3.23;;;1.90;;
8632;SDS011;4354;49.832;10.746;2023-03-23T06:39:41;2.33;;;2.00;;
8632;SDS011;4354;49.832;10.746;2023-03-23T06:42:10;2.43;;;2.23;;
8632;SDS011;4354;49.832;10.746;2023-03-23T06:44:38;2.20;;;1.93;;
8632;SDS011;4354;49.832;10.746;2023-03-23T06:47:04;3.70;;;2.13;;
8632;SDS011;4354;49.832;10.746;2023-03-23T06:49:30;3.37;;;2.73;;
8632;SDS011;4354;49.832;10.746;2023-03-23T06:51:56;3.13;;;2.50;;
8632;SDS011;4354;49.832;10.746;2023-03-23T06:54:22;3.57;;;2.20;;
8632;SDS011;4354;49.832;10.746;2023-03-23T06:56:48;2.90;;;2.53;;
8632;SDS011;4354;49.832;10.746;2023-03-23T06:59:14;3.33;;;3.03;;
8632;SDS011;4354;49.832;10.746;2023-03-23T07:01:40;4.37;;;3.23;;
8632;SDS011;4354;49.832;10.746;2023-03-23T07:04:06;3.70;;;2.87;;
8632;SDS011;4354;49.832;10.746;2023-03-23T07:06:32;5.97;;;2.60;;
8632;SDS011;4354;49.832;10.746;2023-03-23T07:09:00;2.70;;;2.27;;
8632;SDS011;4354;49.832;10.746;2023-03-23T07:11:26;2.37;;;2.10;;
8632;SDS011;4354;49.832;10.746;2023-03-23T07:13:52;3.93;;;3.17;;
8632;SDS011;4354;49.832;10.746;2023-03-23T07:16:18;5.17;;;2.70;;
8632;SDS011;4354;49.832;10.746;2023-03-23T07:18:43;3.10;;;2.50;;
8632;SDS011;4354;49.832;10.746;2023-03-23T07:21:09;3.67;;;2.50;;
8632;SDS011;4354;49.832;10.746;2023-03-23T07:23:35;3.93;;;2.50;;
8632;SDS011;4354;49.832;10.746;2023-03-23T07:26:04;5.27;;;3.00;;
8632;SDS011;4354;49.832;10.746;2023-03-23T07:28:30;3.23;;;2.93;;
8632;SDS011;4354;49.832;10.746;2023-03-23T07:30:56;4.03;;;2.77;;
8632;SDS011;4354;49.832;10.746;2023-03-23T07:33:21;3.87;;;2.47;;
8632;SDS011;4354;49.832;10.746;2023-03-23T07:35:47;4.97;;;2.50;;
8632;SDS011;4354;49.832;10.746;2023-03-23T07:38:13;3.17;;;2.57;;
8632;SDS011;4354;49.832;10.746;2023-03-23T07:40:39;2.93;;;2.00;;
8632;SDS011;4354;49.832;10.746;2023-03-23T07:43:05;2.23;;;1.97;;
8632;SDS011;4354;49.832;10.746;2023-03-23T07:45:32;1.90;;;1.70;;
8632;SDS011;4354;49.832;10.746;2023-03-23T07:47:58;3.40;;;2.10;;
8632;SDS011;4354;49.832;10.746;2023-03-23T07:50:25;3.03;;;2.00;;
8632;SDS011;4354;49.832;10.746;2023-03-23T07:52:55;2.47;;;1.90;;
8632;SDS011;4354;49.832;10.746;2023-03-23T07:55:21;2.80;;;1.83;;
8632;SDS011;4354;49.832;10.746;2023-03-23T07:57:49;3.00;;;1.60;;
8632;SDS011;4354;49.832;10.746;2023-03-23T08:00:17;2.77;;;1.80;;
8632;SDS011;4354;49.832;10.746;2023-03-23T08:02:49;2.53;;;1.90;;
8632;SDS011;4354;49.832;10.746;2023-03-23T08:05:17;3.70;;;2.30;;
8632;SDS011;4354;49.832;10.746;2023-03-23T08:07:44;4.47;;;2.07;;
8632;SDS011;4354;49.832;10.746;2023-03-23T08:10:10;3.00;;;1.87;;
8632;SDS011;4354;49.832;10.746;2023-03-23T08:12:40;2.57;;;2.07;;
8632;SDS011;4354;49.832;10.746;2023-03-23T08:15:08;3.03;;;2.00;;
8632;SDS011;4354;49.832;10.746;2023-03-23T08:17:37;4.00;;;2.13;;
8632;SDS011;4354;49.832;10.746;2023-03-23T08:20:05;3.77;;;2.03;;
8632;SDS011;4354;49.832;10.746;2023-03-23T08:22:37;3.47;;;1.77;;
8632;SDS011;4354;49.832;10.746;2023-03-23T08:25:11;4.55;;;2.13;;
8632;SDS011;4354;49.832;10.746;2023-03-23T08:27:38;2.50;;;2.00;;
8632;SDS011;4354;49.832;10.746;2023-03-23T08:30:14;2.63;;;1.80;;
8632;SDS011;4354;49.832;10.746;2023-03-23T08:32:42;2.58;;;1.90;;
8632;SDS011;4354;49.832;10.746;2023-03-23T08:35:09;3.80;;;2.07;;
8632;SDS011;4354;49.832;10.746;2023-03-23T08:37:36;2.70;;;1.95;;
8632;SDS011;4354;49.832;10.746;2023-03-23T08:40:02;2.60;;;2.08;;
8632;SDS011;4354;49.832;10.746;2023-03-23T08:42:38;2.45;;;2.22;;
8632;SDS011;4354;49.832;10.746;2023-03-23T08:45:05;3.53;;;2.33;;
8632;SDS011;4354;49.832;10.746;2023-03-23T08:47:33;5.75;;;2.60;;
8632;SDS011;4354;49.832;10.746;2023-03-23T08:50:00;3.33;;;2.08;;
8632;SDS011;4354;49.832;10.746;2023-03-23T08:52:27;4.05;;;2.17;;
8632;SDS011;4354;49.832;10.746;2023-03-23T08:54:53;2.53;;;1.85;;
8632;SDS011;4354;49.832;10.746;2023-03-23T08:57:19;2.85;;;1.90;;
8632;SDS011;4354;49.832;10.746;2023-03-23T08:59:45;2.22;;;1.67;;
8632;SDS011;4354;49.832;10.746;2023-03-23T09:02:11;4.05;;;1.60;;
8632;SDS011;4354;49.832;10.746;2023-03-23T09:04:37;2.38;;;1.35;;
8632;SDS011;4354;49.832;10.746;2023-03-23T09:07:04;2.47;;;1.67;;
8632;SDS011;4354;49.832;10.746;2023-03-23T09:09:31;3.40;;;1.65;;
8632;SDS011;4354;49.832;10.746;2023-03-23T09:11:59;3.92;;;2.00;;
8632;SDS011;4354;49.832;10.746;2023-03-23T09:14:25;1.77;;;1.40;;
8632;SDS011;4354;49.832;10.746;2023-03-23T09:16:51;1.58;;;1.33;;
8632;SDS011;4354;49.832;10.746;2023-03-23T09:19:17;2.45;;;1.50;;
8632;SDS011;4354;49.832;10.746;2023-03-23T09:21:43;1.98;;;1.50;;
8632;SDS011;4354;49.832;10.746;2023-03-23T09:24:10;3.80;;;1.70;;
8632;SDS011;4354;49.832;10.746;2023-03-23T09:26:36;1.73;;;1.60;;
8632;SDS011;4354;49.832;10.746;2023-03-23T09:29:02;1.92;;;1.58;;
8632;SDS011;4354;49.832;10.746;2023-03-23T09:31:28;2.80;;;1.50;;
8632;SDS011;4354;49.832;10.746;2023-03-23T09:33:57;1.55;;;1.40;;
8632;SDS011;4354;49.832;10.746;2023-03-23T09:36:24;2.60;;;1.80;;
8632;SDS011;4354;49.832;10.746;2023-03-23T09:38:56;1.92;;;1.55;;
8632;SDS011;4354;49.832;10.746;2023-03-23T09:44:19;1.42;;;1.33;;
8632;SDS011;4354;49.832;10.746;2023-03-23T09:47:21;3.95;;;1.77;;
8632;SDS011;4354;49.832;10.746;2023-03-23T09:50:28;2.20;;;1.50;;
8632;SDS011;4354;49.832;10.746;2023-03-23T09:53:12;2.60;;;2.40;;
8632;SDS011;4354;49.832;10.746;2023-03-23T09:55:42;1.50;;;1.40;;
8632;SDS011;4354;49.832;10.746;2023-03-23T09:58:17;4.13;;;1.98;;
8632;SDS011;4354;49.832;10.746;2023-03-23T10:01:36;1.85;;;1.50;;
8632;SDS011;4354;49.832;10.746;2023-03-23T10:03:40;2.22;;;1.83;;
8632;SDS011;4354;49.832;10.746;2023-03-23T10:06:09;5.32;;;2.90;;
8632;SDS011;4354;49.832;10.746;2023-03-23T10:08:55;3.45;;;2.50;;
8632;SDS011;4354;49.832;10.746;2023-03-23T10:16:50;2.03;;;1.70;;
8632;SDS011;4354;49.832;10.746;2023-03-23T10:19:41;1.80;;;1.40;;
8632;SDS011;4354;49.832;10.746;2023-03-23T10:22:18;1.88;;;1.60;;
8632;SDS011;4354;49.832;10.746;2023-03-23T10:25:04;1.30;;;1.20;;
8632;SDS011;4354;49.832;10.746;2023-03-23T10:35:37;2.13;;;1.60;;
8632;SDS011;4354;49.832;10.746;2023-03-23T10:38:17;1.88;;;1.50;;
8632;SDS011;4354;49.832;10.746;2023-03-23T10:40:58;2.95;;;1.60;;
8632;SDS011;4354;49.832;10.746;2023-03-23T10:43:30;1.92;;;1.42;;
8632;SDS011;4354;49.832;10.746;2023-03-23T10:45:58;2.90;;;1.40;;
8632;SDS011;4354;49.832;10.746;2023-03-23T10:48:29;2.92;;;1.40;;
8632;SDS011;4354;49.832;10.746;2023-03-23T10:50:58;2.08;;;1.25;;
8632;SDS011;4354;49.832;10.746;2023-03-23T10:53:37;1.55;;;1.30;;
8632;SDS011;4354;49.832;10.746;2023-03-23T10:56:19;2.33;;;1.20;;
8632;SDS011;4354;49.832;10.746;2023-03-23T10:58:51;1.20;;;1.10;;
8632;SDS011;4354;49.832;10.746;2023-03-23T11:01:29;2.83;;;1.42;;
8632;SDS011;4354;49.832;10.746;2023-03-23T11:03:57;3.72;;;2.53;;
8632;SDS011;4354;49.832;10.746;2023-03-23T11:06:26;1.75;;;1.25;;
8632;SDS011;4354;49.832;10.746;2023-03-23T11:09:03;1.70;;;1.15;;
8632;SDS011;4354;49.832;10.746;2023-03-23T11:11:38;2.00;;;1.33;;
8632;SDS011;4354;49.832;10.746;2023-03-23T11:17:04;1.27;;;1.17;;
8632;SDS011;4354;49.832;10.746;2023-03-23T11:19:44;1.42;;;1.20;;
8632;SDS011;4354;49.832;10.746;2023-03-23T11:22:15;1.70;;;1.30;;
8632;SDS011;4354;49.832;10.746;2023-03-23T11:24:58;2.40;;;1.00;;
8632;SDS011;4354;49.832;10.746;2023-03-23T11:27:26;1.48;;;0.90;;
8632;SDS011;4354;49.832;10.746;2023-03-23T11:29:54;1.50;;;1.10;;
8632;SDS011;4354;49.832;10.746;2023-03-23T11:32:23;3.15;;;1.02;;
8632;SDS011;4354;49.832;10.746;2023-03-23T11:34:59;1.05;;;0.80;;
8632;SDS011;4354;49.832;10.746;2023-03-23T11:40:02;1.85;;;1.10;;
8632;SDS011;4354;49.832;10.746;2023-03-23T11:42:43;2.25;;;1.00;;
8632;SDS011;4354;49.832;10.746;2023-03-23T11:50:54;0.93;;;0.93;;
8632;SDS011;4354;49.832;10.746;2023-03-23T11:56:34;2.20;;;1.08;;
8632;SDS011;4354;49.832;10.746;2023-03-23T11:59:02;2.17;;;1.05;;
8632;SDS011;4354;49.832;10.746;2023-03-23T12:04:19;1.55;;;1.38;;
8632;SDS011;4354;49.832;10.746;2023-03-23T12:18:13;1.52;;;1.40;;
8632;SDS011;4354;49.832;10.746;2023-03-23T12:23:48;2.28;;;1.20;;
8632;SDS011;4354;49.832;10.746;2023-03-23T12:32:25;3.88;;;2.20;;
8632;SDS011;4354;49.832;10.746;2023-03-23T12:34:40;2.78;;;1.50;;
8632;SDS011;4354;49.832;10.746;2023-03-23T12:37:22;4.35;;;1.60;;
8632;SDS011;4354;49.832;10.746;2023-03-23T12:42:56;2.28;;;1.65;;
8632;SDS011;4354;49.832;10.746;2023-03-23T12:48:57;4.80;;;1.80;;
8632;SDS011;4354;49.832;10.746;2023-03-23T12:59:48;1.67;;;1.45;;
8632;SDS011;4354;49.832;10.746;2023-03-23T13:02:27;5.07;;;2.00;;
8632;SDS011;4354;49.832;10.746;2023-03-23T13:07:44;1.92;;;1.48;;
8632;SDS011;4354;49.832;10.746;2023-03-23T13:10:24;3.28;;;1.60;;
8632;SDS011;4354;49.832;10.746;2023-03-23T13:13:55;4.38;;;1.50;;
8632;SDS011;4354;49.832;10.746;2023-03-23T13:16:27;1.60;;;1.50;;
8632;SDS011;4354;49.832;10.746;2023-03-23T13:19:04;1.65;;;1.52;;
8632;SDS011;4354;49.832;10.746;2023-03-23T13:21:43;3.22;;;1.77;;
8632;SDS011;4354;49.832;10.746;2023-03-23T13:24:17;2.28;;;1.55;;
8632;SDS011;4354;49.832;10.746;2023-03-23T13:26:45;3.38;;;1.70;;
8632;SDS011;4354;49.832;10.746;2023-03-23T13:31:40;2.00;;;1.45;;
8632;SDS011;4354;49.832;10.746;2023-03-23T13:39:21;3.92;;;1.80;;
8632;SDS011;4354;49.832;10.746;2023-03-23T13:45:08;1.63;;;1.52;;
8632;SDS011;4354;49.832;10.746;2023-03-23T13:47:40;3.90;;;1.50;;
8632;SDS011;4354;49.832;10.746;2023-03-23T13:55:18;1.08;;;1.02;;
8632;SDS011;4354;49.832;10.746;2023-03-23T14:02:59;2.10;;;1.02;;
8632;SDS011;4354;49.832;10.746;2023-03-23T14:05:44;1.60;;;1.20;;
8632;SDS011;4354;49.832;10.746;2023-03-23T14:13:31;1.00;;;0.90;;
8632;SDS011;4354;49.832;10.746;2023-03-23T14:16:01;2.92;;;0.85;;
8632;SDS011;4354;49.832;10.746;2023-03-23T14:18:42;2.33;;;1.00;;
8632;SDS011;4354;49.832;10.746;2023-03-23T14:21:17;1.55;;;1.02;;
8632;SDS011;4354;49.832;10.746;2023-03-23T14:23:47;3.05;;;0.77;;
8632;SDS011;4354;49.832;10.746;2023-03-23T14:26:15;1.67;;;0.85;;
8632;SDS011;4354;49.832;10.746;2023-03-23T14:28:45;1.27;;;0.88;;
8632;SDS011;4354;49.832;10.746;2023-03-23T14:31:22;2.38;;;0.90;;
8632;SDS011;4354;49.832;10.746;2023-03-23T14:33:51;1.55;;;0.70;;
8632;SDS011;4354;49.832;10.746;2023-03-23T14:38:48;1.83;;;0.80;;
8632;SDS011;4354;49.832;10.746;2023-03-23T14:41:41;1.27;;;0.80;;
8632;SDS011;4354;49.832;10.746;2023-03-23T14:44:10;0.82;;;0.80;;
8632;SDS011;4354;49.832;10.746;2023-03-23T14:46:39;0.90;;;0.80;;
8632;SDS011;4354;49.832;10.746;2023-03-23T14:49:12;1.13;;;0.80;;
8632;SDS011;4354;49.832;10.746;2023-03-23T14:51:51;2.95;;;0.80;;
8632;SDS011;4354;49.832;10.746;2023-03-23T14:54:22;1.58;;;0.80;;
8632;SDS011;4354;49.832;10.746;2023-03-23T14:56:52;1.25;;;0.90;;
8632;SDS011;4354;49.832;10.746;2023-03-23T14:59:19;0.60;;;0.60;;
8632;SDS011;4354;49.832;10.746;2023-03-23T15:01:46;1.30;;;0.80;;
8632;SDS011;4354;49.832;10.746;2023-03-23T15:04:19;1.15;;;0.90;;
8632;SDS011;4354;49.832;10.746;2023-03-23T15:07:09;2.15;;;0.88;;
8632;SDS011;4354;49.832;10.746;2023-03-23T15:09:34;3.05;;;0.80;;
8632;SDS011;4354;49.832;10.746;2023-03-23T15:12:11;1.30;;;0.77;;
8632;SDS011;4354;49.832;10.746;2023-03-23T15:14:50;0.95;;;0.85;;
8632;SDS011;4354;49.832;10.746;2023-03-23T15:17:23;1.75;;;0.70;;
8632;SDS011;4354;49.832;10.746;2023-03-23T15:19:51;1.67;;;0.80;;
8632;SDS011;4354;49.832;10.746;2023-03-23T15:22:26;1.40;;;0.75;;
8632;SDS011;4354;49.832;10.746;2023-03-23T15:27:42;0.85;;;0.77;;
8632;SDS011;4354;49.832;10.746;2023-03-23T15:32:47;0.95;;;0.77;;
8632;SDS011;4354;49.832;10.746;2023-03-23T15:35:16;1.60;;;0.90;;
8632;SDS011;4354;49.832;10.746;2023-03-23T15:37:52;2.05;;;0.90;;
8632;SDS011;4354;49.832;10.746;2023-03-23T15:40:36;0.80;;;0.80;;
8632;SDS011;4354;49.832;10.746;2023-03-23T15:43:16;1.23;;;0.80;;
8632;SDS011;4354;49.832;10.746;2023-03-23T15:51:22;0.70;;;0.70;;
8632;SDS011;4354;49.832;10.746;2023-03-23T15:53:50;1.45;;;1.00;;
8632;SDS011;4354;49.832;10.746;2023-03-23T15:56:17;3.50;;;0.82;;
8632;SDS011;4354;49.832;10.746;2023-03-23T15:58:43;0.85;;;0.73;;
8632;SDS011;4354;49.832;10.746;2023-03-23T16:01:11;1.77;;;0.90;;
8632;SDS011;4354;49.832;10.746;2023-03-23T16:03:45;1.92;;;1.17;;
8632;SDS011;4354;49.832;10.746;2023-03-23T16:06:14;1.90;;;1.13;;
8632;SDS011;4354;49.832;10.746;2023-03-23T16:08:51;2.55;;;1.35;;
8632;SDS011;4354;49.832;10.746;2023-03-23T16:11:22;1.48;;;1.05;;
8632;SDS011;4354;49.832;10.746;2023-03-23T16:13:50;1.20;;;1.00;;
8632;SDS011;4354;49.832;10.746;2023-03-23T16:16:22;1.85;;;0.93;;
8632;SDS011;4354;49.832;10.746;2023-03-23T16:18:53;2.38;;;0.90;;
8632;SDS011;4354;49.832;10.746;2023-03-23T16:21:21;1.27;;;0.90;;
8632;SDS011;4354;49.832;10.746;2023-03-23T16:23:48;2.53;;;0.85;;
8632;SDS011;4354;49.832;10.746;2023-03-23T16:26:15;2.72;;;0.80;;
8632;SDS011;4354;49.832;10.746;2023-03-23T16:28:42;1.70;;;0.95;;
8632;SDS011;4354;49.832;10.746;2023-03-23T16:31:09;1.02;;;0.88;;
8632;SDS011;4354;49.832;10.746;2023-03-23T16:33:37;1.40;;;1.00;;
8632;SDS011;4354;49.832;10.746;2023-03-23T16:36:04;1.23;;;0.90;;
8632;SDS011;4354;49.832;10.746;2023-03-23T16:38:31;1.20;;;1.00;;
8632;SDS011;4354;49.832;10.746;2023-03-23T16:41:15;2.75;;;1.05;;
8632;SDS011;4354;49.832;10.746;2023-03-23T16:43:41;2.20;;;1.10;;
8632;SDS011;4354;49.832;10.746;2023-03-23T16:46:08;3.47;;;1.20;;
8632;SDS011;4354;49.832;10.746;2023-03-23T16:48:38;1.65;;;1.20;;
8632;SDS011;4354;49.832;10.746;2023-03-23T16:51:05;2.70;;;1.10;;
8632;SDS011;4354;49.832;10.746;2023-03-23T16:53:32;1.30;;;1.20;;
8632;SDS011;4354;49.832;10.746;2023-03-23T16:55:59;1.60;;;1.20;;
8632;SDS011;4354;49.832;10.746;2023-03-23T16:58:26;1.73;;;1.10;;
8632;SDS011;4354;49.832;10.746;2023-03-23T17:00:53;1.15;;;1.05;;
8632;SDS011;4354;49.832;10.746;2023-03-23T17:03:20;2.08;;;1.45;;
8632;SDS011;4354;49.832;10.746;2023-03-23T17:05:48;1.98;;;1.15;;
8632;SDS011;4354;49.832;10.746;2023-03-23T17:08:16;1.23;;;1.10;;
8632;SDS011;4354;49.832;10.746;2023-03-23T17:10:44;1.60;;;1.40;;
8632;SDS011;4354;49.832;10.746;2023-03-23T17:13:12;1.47;;;1.37;;
8632;SDS011;4354;49.832;10.746;2023-03-23T17:15:39;3.15;;;2.00;;
8632;SDS011;4354;49.832;10.746;2023-03-23T17:18:11;4.40;;;1.75;;
8632;SDS011;4354;49.832;10.746;2023-03-23T17:20:38;3.47;;;2.30;;
8632;SDS011;4354;49.832;10.746;2023-03-23T17:23:05;3.23;;;2.07;;
8632;SDS011;4354;49.832;10.746;2023-03-23T17:25:32;3.58;;;2.53;;
8632;SDS011;4354;49.832;10.746;2023-03-23T17:27:58;3.10;;;2.40;;
8632;SDS011;4354;49.832;10.746;2023-03-23T17:30:31;4.17;;;2.10;;
8632;SDS011;4354;49.832;10.746;2023-03-23T17:32:58;3.43;;;2.40;;
8632;SDS011;4354;49.832;10.746;2023-03-23T17:35:25;2.93;;;2.00;;
8632;SDS011;4354;49.832;10.746;2023-03-23T17:37:52;3.13;;;2.40;;
8632;SDS011;4354;49.832;10.746;2023-03-23T17:40:21;3.63;;;2.23;;